Time;durP1;ratioP1;P1;durP2;ratioP2;P2;SDS_P1;SDS_P2;PMS_P1;PMS_P2;Temp;Humidity;BMP_temperature;BMP_pressure;BME280_temperature;BME280_humidity;BME280_pressure;Samples;Min_cycle;Max_cycle;Signal;HPM_P1;HPM_P2
2021/06/21 00:01:02;;;;;;;12.10;4.43;;;22.00;80.90;;;;;;5073566;28;21005;-69
2021/06/21 00:03:28;;;;;;;9.83;3.63;;;22.00;81.50;;;;;;5073495;28;20464;-69
2021/06/21 00:05:55;;;;;;;16.87;4.07;;;22.00;81.80;;;;;;5073469;28;20471;-69
2021/06/21 00:08:24;;;;;;;11.87;4.10;;;22.00;81.60;;;;;;5073039;28;20479;-69
2021/06/21 00:10:54;;;;;;;12.67;3.80;;;22.00;81.60;;;;;;5073352;28;20504;-69
2021/06/21 00:13:26;;;;;;;11.10;3.40;;;22.00;81.40;;;;;;5072912;28;20498;-69
2021/06/21 00:15:53;;;;;;;15.87;4.20;;;22.00;81.60;;;;;;5073475;28;20468;-69
2021/06/21 00:18:26;;;;;;;9.17;3.67;;;22.00;81.70;;;;;;5073206;28;20831;-69
2021/06/21 00:20:58;;;;;;;8.23;3.97;;;22.00;81.80;;;;;;5073201;28;20468;-70
2021/06/21 00:23:28;;;;;;;10.63;3.57;;;22.00;82.00;;;;;;5072830;28;20472;-69
2021/06/21 00:26:00;;;;;;;13.40;3.87;;;22.00;82.20;;;;;;5072885;28;20471;-69
2021/06/21 00:28:30;;;;;;;12.97;4.50;;;22.00;82.20;;;;;;5073008;28;20919;-70
2021/06/21 00:30:59;;;;;;;10.23;3.47;;;22.00;82.60;;;;;;5072853;28;20555;-68
2021/06/21 00:33:40;;;;;;;10.93;4.00;;;21.90;83.20;;;;;;5072905;28;20938;-69
2021/06/21 00:36:09;;;;;;;12.77;4.27;;;21.70;83.80;;;;;;5073159;28;20885;-69
2021/06/21 00:38:44;;;;;;;9.07;3.60;;;21.60;85.90;;;;;;5072761;28;21001;-69
2021/06/21 00:41:17;;;;;;;14.80;4.53;;;21.50;85.60;;;;;;5072761;28;20838;-68
2021/06/21 00:43:47;;;;;;;8.10;3.40;;;21.50;86.00;;;;;;5072878;28;20531;-70
2021/06/21 00:46:26;;;;;;;10.37;3.47;;;21.50;86.30;;;;;;5072660;28;20439;-70
2021/06/21 00:48:54;;;;;;;7.83;4.70;;;21.50;86.10;;;;;;5072897;28;20522;-69
2021/06/21 00:51:28;;;;;;;9.00;4.17;;;21.60;85.70;;;;;;5072209;28;20475;-69
2021/06/21 00:53:57;;;;;;;14.27;4.10;;;21.50;86.20;;;;;;5072767;28;20460;-69
2021/06/21 00:56:30;;;;;;;9.40;3.90;;;21.50;86.20;;;;;;5072746;28;20850;-69
2021/06/21 00:59:00;;;;;;;8.50;3.60;;;21.60;86.10;;;;;;5072499;28;20994;-69
2021/06/21 01:01:29;;;;;;;8.47;3.90;;;21.60;85.80;;;;;;5073426;28;20486;-69
2021/06/21 01:04:02;;;;;;;15.93;3.93;;;21.60;85.40;;;;;;5076697;28;20432;-71
2021/06/21 01:06:29;;;;;;;16.40;4.33;;;21.60;85.40;;;;;;5076781;28;20850;-69
2021/06/21 01:08:58;;;;;;;12.57;3.57;;;21.60;85.50;;;;;;5076664;28;20959;-70
2021/06/21 01:11:48;;;;;;;8.50;2.97;;;21.70;85.60;;;;;;5076568;28;20471;-69
2021/06/21 01:14:20;;;;;;;12.93;4.27;;;21.70;85.60;;;;;;5076999;28;20487;-69
2021/06/21 01:17:01;;;;;;;11.23;5.40;;;21.60;85.60;;;;;;5076756;28;20965;-69
2021/06/21 01:20:03;;;;;;;12.17;3.73;;;21.60;85.80;;;;;;5076734;28;20443;-71
2021/06/21 01:23:10;;;;;;;15.23;4.87;;;21.60;86.20;;;;;;5076421;28;20530;-69
2021/06/21 01:25:45;;;;;;;10.40;4.40;;;21.60;86.10;;;;;;5076598;28;20439;-69
2021/06/21 01:28:21;;;;;;;8.50;4.10;;;21.70;86.30;;;;;;5076559;28;20949;-69
2021/06/21 01:31:07;;;;;;;11.57;3.83;;;21.70;86.20;;;;;;5113702;28;20470;-70
2021/06/21 01:33:42;;;;;;;7.63;3.47;;;21.70;86.20;;;;;;5116985;28;20454;-69
2021/06/21 01:36:21;;;;;;;11.53;4.03;;;21.60;86.80;;;;;;5116626;28;21053;-69
2021/06/21 01:38:51;;;;;;;10.00;3.80;;;21.60;87.00;;;;;;5116975;28;20481;-70
2021/06/21 01:41:23;;;;;;;12.77;4.00;;;21.60;86.80;;;;;;5116908;28;20984;-69
2021/06/21 01:43:52;;;;;;;16.93;4.73;;;21.60;87.20;;;;;;5116985;28;20807;-69
2021/06/21 01:46:27;;;;;;;11.77;4.13;;;21.50;87.40;;;;;;5116903;28;20491;-69
2021/06/21 01:48:59;;;;;;;9.70;3.00;;;21.50;87.50;;;;;;5116825;28;20475;-70
2021/06/21 01:51:33;;;;;;;13.40;4.10;;;21.60;87.40;;;;;;5116559;28;20468;-70
2021/06/21 01:54:09;;;;;;;9.50;3.83;;;21.50;87.10;;;;;;5116565;28;20555;-69
2021/06/21 01:56:45;;;;;;;11.97;4.03;;;21.50;87.40;;;;;;5116492;28;20520;-69
2021/06/21 01:59:18;;;;;;;11.60;3.90;;;21.50;87.70;;;;;;5116052;28;21001;-69
2021/06/21 02:01:52;;;;;;;10.20;4.47;;;21.50;87.70;;;;;;5116263;28;20515;-69
2021/06/21 02:04:23;;;;;;;8.00;4.00;;;21.50;87.70;;;;;;5116574;28;20513;-69
2021/06/21 02:06:56;;;;;;;12.00;3.30;;;21.40;87.80;;;;;;5115971;28;20478;-70
2021/06/21 02:09:25;;;;;;;10.60;4.00;;;21.40;88.10;;;;;;5116013;28;20465;-70
2021/06/21 02:11:57;;;;;;;12.60;3.97;;;21.30;89.60;;;;;;5116120;28;20543;-69
2021/06/21 02:14:29;;;;;;;15.23;4.30;;;21.30;88.90;;;;;;5115316;28;20465;-70
2021/06/21 02:16:59;;;;;;;13.20;3.80;;;21.20;89.20;;;;;;5115575;28;20482;-70
2021/06/21 02:19:32;;;;;;;8.90;4.30;;;21.20;89.80;;;;;;5116021;28;20960;-69
2021/06/21 02:22:02;;;;;;;15.13;5.07;;;21.20;90.00;;;;;;5116249;28;20528;-69
2021/06/21 02:24:35;;;;;;;6.17;4.30;;;21.20;89.60;;;;;;5115959;28;20499;-69
2021/06/21 02:27:06;;;;;;;19.90;5.03;;;21.20;89.90;;;;;;5115860;28;20470;-69
2021/06/21 02:29:42;;;;;;;12.13;3.87;;;21.20;89.80;;;;;;5115541;28;20462;-69
2021/06/21 02:32:18;;;;;;;12.90;4.57;;;21.10;90.10;;;;;;5115906;28;20472;-69
2021/06/21 02:34:46;;;;;;;12.00;3.93;;;21.10;90.20;;;;;;5116018;28;20529;-69
2021/06/21 02:37:27;;;;;;;13.33;4.10;;;21.10;90.10;;;;;;5115944;28;20474;-69
2021/06/21 02:40:01;;;;;;;8.60;3.37;;;21.20;90.00;;;;;;5115736;28;20517;-69
2021/06/21 02:42:32;;;;;;;8.67;4.17;;;21.10;89.80;;;;;;5115668;28;20434;-69
2021/06/21 02:45:01;;;;;;;8.33;3.30;;;21.10;89.90;;;;;;5115664;28;20561;-69
2021/06/21 02:47:28;;;;;;;17.17;3.77;;;21.20;90.00;;;;;;5115620;28;20465;-69
2021/06/21 02:50:01;;;;;;;6.80;3.13;;;21.20;89.90;;;;;;5113923;28;20477;-69
2021/06/21 02:52:48;;;;;;;7.63;3.80;;;21.20;89.80;;;;;;5115427;28;20521;-69
2021/06/21 02:55:21;;;;;;;17.07;4.70;;;21.20;89.80;;;;;;5115166;28;20473;-69
2021/06/21 02:57:59;;;;;;;8.80;3.90;;;21.20;89.60;;;;;;5115473;28;20890;-70
2021/06/21 03:00:35;;;;;;;11.43;4.03;;;21.20;89.60;;;;;;5115216;28;20472;-70
2021/06/21 03:03:03;;;;;;;11.40;4.03;;;21.20;89.50;;;;;;5115297;28;20429;-70
2021/06/21 03:05:41;;;;;;;7.53;3.67;;;21.10;89.40;;;;;;5115241;28;20481;-69
2021/06/21 03:08:27;;;;;;;8.97;4.00;;;21.00;89.60;;;;;;5115165;28;20520;-70
2021/06/21 03:10:55;;;;;;;12.27;4.57;;;21.00;89.90;;;;;;5115447;28;20452;-69
2021/06/21 03:13:28;;;;;;;5.77;3.37;;;20.90;90.10;;;;;;5114939;28;20473;-70
2021/06/21 03:15:58;;;;;;;10.87;3.90;;;20.80;90.20;;;;;;5115282;28;20513;-69
2021/06/21 03:18:26;;;;;;;9.93;3.50;;;20.90;90.30;;;;;;5114677;28;21091;-70
2021/06/21 03:20:56;;;;;;;7.20;3.37;;;20.90;90.30;;;;;;5114831;28;20517;-71
2021/06/21 03:23:24;;;;;;;10.13;4.50;;;20.90;90.40;;;;;;5114665;28;20840;-70
2021/06/21 03:25:56;;;;;;;12.27;3.60;;;20.90;90.50;;;;;;5113856;28;20871;-71
2021/06/21 03:28:24;;;;;;;9.97;3.73;;;20.90;90.60;;;;;;5114794;28;20521;-70
2021/06/21 03:30:53;;;;;;;10.70;5.67;;;20.90;90.50;;;;;;5114722;28;20548;-70
2021/06/21 03:33:21;;;;;;;10.93;3.90;;;20.80;90.50;;;;;;5114511;28;20437;-70
2021/06/21 03:35:48;;;;;;;7.87;3.80;;;20.80;90.50;;;;;;5114752;28;20473;-69
2021/06/21 03:38:21;;;;;;;14.27;4.10;;;20.80;90.30;;;;;;5114654;28;20557;-70
2021/06/21 03:40:49;;;;;;;12.93;3.87;;;20.70;90.10;;;;;;5114959;28;20439;-70
2021/06/21 03:43:18;;;;;;;10.10;4.40;;;20.60;89.60;;;;;;5114634;28;20495;-70
2021/06/21 03:45:48;;;;;;;5.50;3.50;;;20.60;89.40;;;;;;5114660;28;20526;-70
2021/06/21 03:48:15;;;;;;;8.50;2.93;;;20.70;88.90;;;;;;5114296;28;20525;-70
2021/06/21 03:50:42;;;;;;;10.97;3.77;;;20.70;88.20;;;;;;5114552;28;20470;-70
2021/06/21 03:53:10;;;;;;;11.07;3.00;;;20.70;87.10;;;;;;5114399;28;20512;-70
2021/06/21 03:55:38;;;;;;;8.60;3.00;;;20.80;86.60;;;;;;5113775;28;20525;-70
2021/06/21 03:58:06;;;;;;;5.27;2.60;;;20.80;85.80;;;;;;5113900;28;20553;-69
2021/06/21 04:00:34;;;;;;;7.43;3.33;;;20.80;84.40;;;;;;5114197;28;20521;-70
2021/06/21 04:03:07;;;;;;;6.73;3.03;;;20.80;84.20;;;;;;5114125;28;20478;-70
2021/06/21 04:05:37;;;;;;;9.53;3.20;;;20.80;82.60;;;;;;5114207;28;20529;-70
2021/06/21 04:08:05;;;;;;;11.33;3.50;;;20.80;82.30;;;;;;5114166;28;20438;-70
2021/06/21 04:10:32;;;;;;;8.80;2.97;;;20.80;82.00;;;;;;5113812;28;20443;-70
2021/06/21 04:13:00;;;;;;;6.40;3.20;;;20.80;81.20;;;;;;5114113;28;20422;-70
2021/06/21 04:15:35;;;;;;;9.77;2.67;;;20.80;81.50;;;;;;5113916;28;20473;-70
2021/06/21 04:18:05;;;;;;;6.93;2.57;;;20.70;79.80;;;;;;5114053;28;20472;-70
2021/06/21 04:20:39;;;;;;;15.00;3.37;;;20.80;77.50;;;;;;5114137;28;20854;-70
2021/06/21 04:23:14;;;;;;;7.80;3.50;;;20.80;78.10;;;;;;5113938;28;20456;-70
2021/06/21 04:25:41;;;;;;;11.73;2.90;;;20.80;76.80;;;;;;5114017;28;20520;-70
2021/06/21 04:28:14;;;;;;;7.87;2.50;;;20.80;76.90;;;;;;5113820;28;20869;-71
2021/06/21 04:30:44;;;;;;;8.33;2.67;;;20.80;76.30;;;;;;5113373;28;21052;-70
2021/06/21 04:33:11;;;;;;;7.07;2.53;;;20.80;77.30;;;;;;5113850;28;20442;-70
2021/06/21 04:35:40;;;;;;;9.00;2.53;;;20.80;78.20;;;;;;5113717;28;20473;-70
2021/06/21 04:38:12;;;;;;;12.63;2.63;;;20.80;78.90;;;;;;5113407;28;20859;-71
2021/06/21 04:40:44;;;;;;;7.77;2.97;;;20.90;79.70;;;;;;5113863;28;20438;-71
2021/06/21 04:43:15;;;;;;;8.63;2.80;;;21.00;79.70;;;;;;5109244;28;20478;-72
2021/06/21 04:45:47;;;;;;;4.23;2.80;;;21.10;80.60;;;;;;5092221;28;20996;-69
2021/06/21 04:48:14;;;;;;;10.60;3.00;;;21.20;79.80;;;;;;5092419;28;20522;-72
2021/06/21 04:50:42;;;;;;;15.40;2.60;;;21.30;79.60;;;;;;5092666;28;20558;-70
2021/06/21 04:53:14;;;;;;;10.23;3.00;;;21.40;79.00;;;;;;5092811;28;20435;-72
2021/06/21 04:55:44;;;;;;;5.30;2.20;;;21.40;79.60;;;;;;5092466;28;20982;-71
2021/06/21 04:58:11;;;;;;;10.87;2.90;;;21.60;79.90;;;;;;5108098;28;20800;-69
2021/06/21 05:00:39;;;;;;;7.70;2.43;;;21.60;78.90;;;;;;5091818;28;20475;-70
2021/06/21 05:03:06;;;;;;;9.07;2.50;;;21.60;79.00;;;;;;5102039;28;20897;-70
2021/06/21 05:05:33;;;;;;;8.77;2.40;;;21.70;78.40;;;;;;5109085;28;20430;-70
2021/06/21 05:08:02;;;;;;;10.80;2.97;;;21.70;78.90;;;;;;5109202;28;20916;-70
2021/06/21 05:10:31;;;;;;;7.33;2.17;;;21.80;78.10;;;;;;5109746;28;20480;-70
2021/06/21 05:12:58;;;;;;;7.50;2.27;;;21.70;78.10;;;;;;5110152;28;20785;-71
2021/06/21 05:15:30;;;;;;;7.57;1.97;;;21.80;78.70;;;;;;5099160;28;20471;-69
2021/06/21 05:17:58;;;;;;;8.07;2.17;;;21.90;78.10;;;;;;5106578;28;20952;-70
2021/06/21 05:20:25;;;;;;;12.40;3.80;;;22.00;74.30;;;;;;5110215;28;20905;-70
2021/06/21 05:22:52;;;;;;;5.50;2.13;;;21.90;74.60;;;;;;5109154;28;20516;-72
2021/06/21 05:25:20;;;;;;;11.77;2.63;;;22.00;74.90;;;;;;5109334;28;20441;-71
2021/06/21 05:27:47;;;;;;;8.00;2.20;;;21.90;73.70;;;;;;5110153;28;20441;-70
2021/06/21 05:30:15;;;;;;;7.40;2.20;;;21.90;74.40;;;;;;5110178;28;20466;-70
2021/06/21 05:32:42;;;;;;;7.63;2.07;;;22.00;75.20;;;;;;5102640;28;20517;-69
2021/06/21 05:35:12;;;;;;;9.93;2.40;;;22.10;75.60;;;;;;5109889;28;20779;-70
2021/06/21 05:37:40;;;;;;;12.03;2.50;;;22.20;75.80;;;;;;5109705;28;20434;-70
2021/06/21 05:40:19;;;;;;;9.40;2.73;;;22.30;75.50;;;;;;5118456;28;20996;-70
2021/06/21 05:42:46;;;;;;;11.93;2.50;;;22.30;74.20;;;;;;5122337;28;20830;-70
2021/06/21 05:45:15;;;;;;;4.50;2.27;;;22.40;74.10;;;;;;5109844;28;20452;-70
2021/06/21 05:47:42;;;;;;;8.30;2.27;;;22.40;73.80;;;;;;5091474;28;20439;-70
2021/06/21 05:50:12;;;;;;;5.63;2.17;;;22.50;72.50;;;;;;5105405;27;20537;-70
2021/06/21 05:52:39;;;;;;;10.17;2.43;;;22.50;71.40;;;;;;5115845;28;20442;-70
2021/06/21 05:55:07;;;;;;;10.73;1.93;;;22.60;70.60;;;;;;5123964;27;20464;-70
2021/06/21 05:57:43;;;;;;;7.77;2.30;;;22.60;70.60;;;;;;5107263;27;20435;-69
2021/06/21 06:00:11;;;;;;;10.63;2.70;;;22.70;69.70;;;;;;5101337;27;20987;-70
2021/06/21 06:02:42;;;;;;;7.63;2.00;;;22.70;70.10;;;;;;5110715;27;20434;-71
2021/06/21 06:05:12;;;;;;;8.30;2.40;;;22.70;68.10;;;;;;5106985;27;20437;-69
2021/06/21 06:07:39;;;;;;;6.63;1.60;;;22.80;65.70;;;;;;5104152;28;20462;-71
2021/06/21 06:10:08;;;;;;;7.10;2.23;;;22.80;65.80;;;;;;5094227;28;20501;-71
2021/06/21 06:12:40;;;;;;;8.70;2.20;;;22.90;67.20;;;;;;5110663;28;20961;-71
2021/06/21 06:15:08;;;;;;;11.20;2.40;;;22.90;68.20;;;;;;5112335;28;20441;-70
2021/06/21 06:17:35;;;;;;;8.80;3.77;;;23.00;69.40;;;;;;5111532;28;20438;-71
2021/06/21 06:20:04;;;;;;;7.53;2.17;;;23.10;67.90;;;;;;5113106;27;20479;-70
2021/06/21 06:22:33;;;;;;;11.53;2.67;;;23.20;66.90;;;;;;5112459;27;20446;-70
2021/06/21 06:25:00;;;;;;;4.00;2.00;;;23.30;66.50;;;;;;5094737;28;20435;-70
2021/06/21 06:27:33;;;;;;;2.97;1.47;;;23.40;66.50;;;;;;5112735;27;20452;-70
2021/06/21 06:30:03;;;;;;;7.50;1.87;;;23.40;65.40;;;;;;5113092;28;20488;-70
2021/06/21 06:32:33;;;;;;;8.80;2.20;;;23.50;66.50;;;;;;5113034;27;20523;-70
2021/06/21 06:35:05;;;;;;;5.67;2.20;;;23.60;66.30;;;;;;5108995;28;20834;-69
2021/06/21 06:37:36;;;;;;;11.57;2.17;;;23.70;64.40;;;;;;5112700;27;20439;-70
2021/06/21 06:40:04;;;;;;;8.83;2.00;;;23.80;63.90;;;;;;5111961;28;20507;-70
2021/06/21 06:42:30;;;;;;;9.90;3.17;;;23.80;64.30;;;;;;5113898;27;20441;-70
2021/06/21 06:44:58;;;;;;;8.73;2.20;;;23.90;63.90;;;;;;5094658;28;20446;-70
2021/06/21 06:47:25;;;;;;;9.13;2.20;;;24.00;63.50;;;;;;5094804;28;20863;-70
2021/06/21 06:49:52;;;;;;;5.73;1.90;;;24.10;63.30;;;;;;5094446;28;20497;-70
2021/06/21 06:52:21;;;;;;;7.40;1.93;;;24.30;63.10;;;;;;5097338;27;20435;-70
2021/06/21 06:56:58;;;;;;;12.13;2.43;;;24.40;62.20;;;;;;5094677;28;20439;-70
2021/06/21 06:57:37;;;;;;;5.13;1.80;;;24.50;62.40;;;;;;5099857;27;20526;-70
2021/06/21 07:00:07;;;;;;;9.43;1.87;;;24.70;60.90;;;;;;5112140;28;20976;-70
2021/06/21 07:02:34;;;;;;;9.47;2.27;;;24.80;60.90;;;;;;5096485;28;20430;-69
2021/06/21 07:05:02;;;;;;;7.77;2.50;;;24.90;60.50;;;;;;5113359;27;20434;-69
2021/06/21 07:07:29;;;;;;;8.20;2.30;;;25.10;59.70;;;;;;5112856;27;20438;-70
2021/06/21 07:09:57;;;;;;;9.80;2.43;;;25.20;59.50;;;;;;5112228;28;20492;-69
2021/06/21 07:12:24;;;;;;;6.40;3.03;;;25.40;58.80;;;;;;5097841;27;20443;-70
2021/06/21 07:14:51;;;;;;;7.30;1.90;;;25.60;57.90;;;;;;5098469;27;20793;-70
2021/06/21 07:17:18;;;;;;;7.57;2.30;;;25.90;57.50;;;;;;5111902;27;20479;-69
2021/06/21 07:19:45;;;;;;;8.60;2.90;;;26.20;58.00;;;;;;5094221;28;21065;-72
2021/06/21 07:22:12;;;;;;;6.60;2.57;;;26.50;56.80;;;;;;5107827;27;20906;-70
2021/06/21 07:24:39;;;;;;;8.07;1.97;;;26.50;54.90;;;;;;5104067;27;20922;-69
2021/06/21 07:27:08;;;;;;;8.60;3.60;;;26.60;54.80;;;;;;5111855;28;20437;-69
2021/06/21 07:29:36;;;;;;;9.80;2.40;;;26.70;55.70;;;;;;5104789;27;20967;-71
2021/06/21 07:32:04;;;;;;;6.20;1.93;;;26.80;55.80;;;;;;5094060;28;20519;-69
2021/06/21 07:34:32;;;;;;;7.53;1.87;;;26.90;54.40;;;;;;5101391;28;20433;-69
2021/06/21 07:36:59;;;;;;;14.47;3.67;;;27.00;53.10;;;;;;5114749;28;20441;-70
2021/06/21 07:39:26;;;;;;;8.60;2.57;;;27.10;53.00;;;;;;5114429;28;20565;-70
2021/06/21 07:41:56;;;;;;;7.00;2.43;;;27.30;52.80;;;;;;5114870;28;20438;-70
2021/06/21 07:44:25;;;;;;;6.37;2.00;;;27.40;51.90;;;;;;5114651;28;20492;-70
2021/06/21 07:46:55;;;;;;;10.13;3.53;;;27.60;51.40;;;;;;5114856;28;20525;-70
2021/06/21 07:49:22;;;;;;;5.00;2.07;;;27.70;51.40;;;;;;5114812;28;20469;-70
2021/06/21 07:51:52;;;;;;;5.40;2.27;;;27.90;50.70;;;;;;5114237;28;20470;-70
2021/06/21 07:54:20;;;;;;;7.07;2.07;;;28.00;50.10;;;;;;5114332;28;20517;-70
2021/06/21 07:56:47;;;;;;;6.23;1.93;;;28.20;48.90;;;;;;5114185;28;20442;-70
2021/06/21 07:59:14;;;;;;;4.83;1.90;;;28.40;48.60;;;;;;5114518;28;20474;-70
2021/06/21 08:01:42;;;;;;;8.23;2.13;;;28.50;48.50;;;;;;5114496;28;20435;-70
2021/06/21 08:04:09;;;;;;;13.50;2.80;;;28.60;47.40;;;;;;5114246;28;20546;-70
2021/06/21 08:06:37;;;;;;;6.47;2.27;;;28.70;46.70;;;;;;5114471;28;20470;-69
2021/06/21 08:09:05;;;;;;;6.93;2.30;;;28.60;45.90;;;;;;5114334;28;20480;-70
2021/06/21 08:11:32;;;;;;;8.17;2.43;;;28.50;44.50;;;;;;5113830;28;20792;-70
2021/06/21 08:13:59;;;;;;;5.87;2.03;;;28.30;44.60;;;;;;5114186;28;20534;-70
2021/06/21 08:16:28;;;;;;;6.77;1.90;;;28.20;45.00;;;;;;5113984;28;20427;-70
2021/06/21 08:18:57;;;;;;;9.40;1.80;;;28.10;46.70;;;;;;5114036;28;20860;-70
2021/06/21 08:21:24;;;;;;;6.73;2.27;;;28.10;47.20;;;;;;5114028;28;20565;-69
2021/06/21 08:23:51;;;;;;;10.73;2.70;;;28.20;48.00;;;;;;5113899;28;20513;-70
2021/06/21 08:26:23;;;;;;;8.00;2.50;;;28.20;46.60;;;;;;5114104;28;20474;-70
2021/06/21 08:28:50;;;;;;;5.60;1.80;;;28.30;46.50;;;;;;5113733;28;20541;-70
2021/06/21 08:31:17;;;;;;;7.33;2.13;;;28.40;46.40;;;;;;5114067;28;20480;-69
2021/06/21 08:33:44;;;;;;;8.33;4.27;;;28.50;44.30;;;;;;5113841;28;20521;-70
2021/06/21 08:36:12;;;;;;;8.83;2.90;;;28.50;44.50;;;;;;5113929;28;21008;-69
2021/06/21 08:38:39;;;;;;;4.33;2.20;;;28.60;43.50;;;;;;5113812;28;20528;-70
2021/06/21 08:41:06;;;;;;;7.00;1.83;;;28.70;44.60;;;;;;5113996;28;20527;-70
2021/06/21 08:43:43;;;;;;;7.80;2.30;;;28.80;44.60;;;;;;5113190;28;20434;-70
2021/06/21 08:46:11;;;;;;;9.70;2.53;;;29.00;43.80;;;;;;5113643;28;20503;-70
2021/06/21 08:48:43;;;;;;;6.90;1.63;;;29.30;43.90;;;;;;5113328;28;20983;-69
2021/06/21 08:51:15;;;;;;;4.70;1.60;;;29.50;43.90;;;;;;5113583;28;20477;-70
2021/06/21 08:53:42;;;;;;;6.77;1.67;;;29.50;43.40;;;;;;5113551;28;20463;-70
2021/06/21 08:56:10;;;;;;;5.23;1.67;;;29.40;41.80;;;;;;5113606;28;20498;-70
2021/06/21 08:58:37;;;;;;;8.87;1.20;;;29.40;41.90;;;;;;5113572;28;20944;-70
2021/06/21 09:01:04;;;;;;;4.47;1.90;;;29.40;41.90;;;;;;5113348;28;20553;-70
2021/06/21 09:03:33;;;;;;;8.63;1.77;;;29.40;41.20;;;;;;5113733;28;20466;-70
2021/06/21 09:06:00;;;;;;;5.70;1.57;;;29.40;41.40;;;;;;5113407;28;20469;-70
2021/06/21 09:08:52;;;;;;;6.03;2.23;;;29.40;39.30;;;;;;5113591;28;20448;-69
2021/06/21 09:11:19;;;;;;;5.33;2.27;;;29.40;40.50;;;;;;5113499;28;20475;-70
2021/06/21 09:13:47;;;;;;;7.47;2.73;;;29.50;41.30;;;;;;5113304;28;20544;-70
2021/06/21 09:16:14;;;;;;;5.00;1.60;;;29.50;42.00;;;;;;5113556;28;20486;-69
2021/06/21 09:18:42;;;;;;;5.33;1.30;;;29.60;41.10;;;;;;5113446;28;20471;-71
2021/06/21 09:21:28;;;;;;;4.43;1.80;;;29.60;40.20;;;;;;5113307;28;20618;-70
2021/06/21 09:24:01;;;;;;;4.90;1.80;;;29.70;40.80;;;;;;5114878;28;20530;-69
2021/06/21 09:26:33;;;;;;;5.60;1.60;;;29.90;39.10;;;;;;5117485;28;20432;-70
2021/06/21 09:29:01;;;;;;;5.60;1.70;;;30.10;40.10;;;;;;5117297;28;21033;-70
2021/06/21 09:31:50;;;;;;;3.50;1.60;;;30.30;39.40;;;;;;5117601;28;20507;-70
2021/06/21 09:34:18;;;;;;;6.37;1.73;;;30.80;39.60;;;;;;5117537;28;20441;-69
2021/06/21 09:36:45;;;;;;;3.93;1.43;;;31.10;39.40;;;;;;5117390;28;20477;-69
2021/06/21 09:39:22;;;;;;;3.97;1.40;;;31.30;38.70;;;;;;5117353;28;20559;-69
2021/06/21 09:42:09;;;;;;;4.57;2.00;;;31.50;36.50;;;;;;5117042;28;21006;-70
2021/06/21 09:44:38;;;;;;;8.47;1.77;;;31.50;35.30;;;;;;5117063;28;20468;-69
2021/06/21 09:47:27;;;;;;;4.40;1.60;;;31.50;35.60;;;;;;5116731;28;20426;-70
2021/06/21 09:50:06;;;;;;;6.53;1.33;;;31.40;35.20;;;;;;5117050;28;20469;-74
2021/06/21 09:52:38;;;;;;;4.80;1.60;;;31.30;36.50;;;;;;5117152;28;20445;-70
2021/06/21 09:55:16;;;;;;;7.80;2.70;;;31.30;36.80;;;;;;5116837;28;20525;-69
2021/06/21 09:57:44;;;;;;;5.00;1.60;;;31.30;36.40;;;;;;5116935;28;20496;-70
2021/06/21 10:00:14;;;;;;;4.53;1.50;;;31.40;34.30;;;;;;5116860;28;20809;-69
2021/06/21 10:02:41;;;;;;;6.37;2.20;;;31.40;34.00;;;;;;5116388;28;20520;-69
2021/06/21 10:05:19;;;;;;;6.43;1.53;;;31.40;35.70;;;;;;5116769;28;20491;-69
2021/06/21 10:07:46;;;;;;;5.37;1.40;;;31.40;36.00;;;;;;5116853;28;20622;-70
2021/06/21 10:10:18;;;;;;;4.30;2.17;;;31.40;36.20;;;;;;5116762;28;20841;-69
2021/06/21 10:12:45;;;;;;;5.50;2.10;;;31.30;37.00;;;;;;5116764;28;20517;-75
2021/06/21 10:15:14;;;;;;;7.27;2.50;;;31.30;34.70;;;;;;5116661;28;20521;-69
2021/06/21 10:17:41;;;;;;;5.07;1.97;;;31.20;34.50;;;;;;5116634;28;20512;-70
2021/06/21 10:20:09;;;;;;;5.03;1.50;;;31.20;34.20;;;;;;5116076;28;20469;-70
2021/06/21 10:22:37;;;;;;;5.43;1.97;;;31.20;35.70;;;;;;5116261;28;20517;-69
2021/06/21 10:25:06;;;;;;;7.90;2.53;;;31.20;34.50;;;;;;5116264;28;20493;-70
2021/06/21 10:27:37;;;;;;;5.10;2.50;;;31.20;34.50;;;;;;5116320;28;20469;-70
2021/06/21 10:30:07;;;;;;;6.70;1.30;;;31.30;36.50;;;;;;5115936;28;20549;-70
2021/06/21 10:32:34;;;;;;;5.10;1.80;;;31.30;36.60;;;;;;5116191;28;20525;-69
2021/06/21 10:35:03;;;;;;;3.67;1.60;;;31.40;36.20;;;;;;5115657;28;20437;-70
2021/06/21 10:37:32;;;;;;;7.00;1.90;;;31.30;37.30;;;;;;5116139;28;20440;-69
2021/06/21 10:40:02;;;;;;;4.47;1.70;;;31.40;37.00;;;;;;5115532;28;20988;-70
2021/06/21 10:42:34;;;;;;;8.87;2.20;;;31.30;36.60;;;;;;5116301;28;20513;-70
2021/06/21 10:45:04;;;;;;;4.63;1.70;;;31.40;37.90;;;;;;5115980;28;20928;-70
2021/06/21 10:47:36;;;;;;;5.30;1.93;;;31.50;38.40;;;;;;5115994;28;20512;-70
2021/06/21 10:50:11;;;;;;;5.37;2.20;;;31.60;38.10;;;;;;5115774;28;20912;-70
2021/06/21 10:52:44;;;;;;;4.77;1.70;;;31.60;38.70;;;;;;5115655;28;20430;-70
2021/06/21 10:55:40;;;;;;;5.00;1.63;;;31.70;37.90;;;;;;5115817;28;20473;-70
2021/06/21 10:58:43;;;;;;;6.17;1.90;;;31.90;38.00;;;;;;5109107;28;20438;-69
2021/06/21 11:01:16;;;;;;;7.10;1.90;;;31.90;37.40;;;;;;5111896;28;20482;-69
2021/06/21 11:03:43;;;;;;;4.20;1.77;;;32.00;36.70;;;;;;5115704;28;20477;-69
2021/06/21 11:06:38;;;;;;;6.33;2.30;;;32.00;37.50;;;;;;5115629;28;20473;-70
2021/06/21 11:09:06;;;;;;;3.73;1.77;;;32.00;38.20;;;;;;5115434;28;20529;-70
2021/06/21 11:11:48;;;;;;;4.93;1.87;;;32.00;36.30;;;;;;5115546;28;20525;-70
2021/06/21 11:14:28;;;;;;;8.90;1.60;;;31.90;37.00;;;;;;5115651;28;20438;-71
2021/06/21 11:17:20;;;;;;;9.47;3.27;;;31.90;36.00;;;;;;5115168;28;20947;-72
2021/06/21 11:19:47;;;;;;;8.60;2.10;;;31.90;35.40;;;;;;5115273;28;20433;-69
2021/06/21 11:22:15;;;;;;;8.40;2.60;;;31.90;35.50;;;;;;5115084;28;20509;-69
2021/06/21 11:24:53;;;;;;;5.53;2.20;;;31.90;34.20;;;;;;5115216;28;20445;-69
2021/06/21 11:27:23;;;;;;;4.93;2.40;;;31.70;34.10;;;;;;5115167;28;20533;-70
2021/06/21 11:29:53;;;;;;;7.23;2.77;;;31.60;35.30;;;;;;5114646;28;20901;-70
2021/06/21 11:32:24;;;;;;;10.43;2.00;;;31.60;36.60;;;;;;5114751;28;20438;-70
2021/06/21 11:34:54;;;;;;;7.10;1.87;;;31.70;36.60;;;;;;5114761;28;20528;-70
2021/06/21 11:37:32;;;;;;;4.30;1.80;;;31.70;37.50;;;;;;5115129;28;20489;-70
2021/06/21 11:40:28;;;;;;;6.10;2.00;;;31.80;38.30;;;;;;5114827;28;20936;-70
2021/06/21 11:43:14;;;;;;;7.00;2.47;;;31.90;36.70;;;;;;5108087;28;20464;-69
2021/06/21 11:45:59;;;;;;;7.63;1.90;;;31.90;36.50;;;;;;5114330;28;20544;-69
2021/06/21 11:48:33;;;;;;;7.70;1.87;;;31.90;37.20;;;;;;5114635;28;20438;-70
2021/06/21 11:51:03;;;;;;;8.43;2.40;;;31.90;37.40;;;;;;5114566;28;20521;-70
2021/06/21 11:53:30;;;;;;;7.87;2.60;;;32.00;37.70;;;;;;5114598;28;20462;-69
2021/06/21 11:55:58;;;;;;;5.33;2.53;;;31.90;35.30;;;;;;5114606;28;20485;-70
2021/06/21 11:58:30;;;;;;;8.57;2.00;;;32.00;36.70;;;;;;5113956;28;20995;-71
2021/06/21 12:00:57;;;;;;;3.70;1.77;;;32.10;35.90;;;;;;5114305;28;20568;-70
2021/06/21 12:03:36;;;;;;;7.77;2.33;;;32.10;36.10;;;;;;5113991;28;20928;-70
2021/06/21 12:06:06;;;;;;;8.43;2.47;;;32.20;36.00;;;;;;5114573;28;20442;-71
2021/06/21 12:08:37;;;;;;;8.30;2.50;;;32.20;37.00;;;;;;5114250;28;20472;-70
2021/06/21 12:11:18;;;;;;;9.73;3.13;;;32.30;36.40;;;;;;5114208;28;20441;-70
2021/06/21 12:13:55;;;;;;;6.70;2.30;;;32.40;38.20;;;;;;5114031;28;20477;-70
2021/06/21 12:16:22;;;;;;;7.73;2.10;;;32.30;35.80;;;;;;5114294;28;20796;-70
2021/06/21 12:18:56;;;;;;;6.43;2.03;;;32.30;34.90;;;;;;5113821;28;20959;-70
2021/06/21 12:21:34;;;;;;;9.07;2.50;;;32.20;36.10;;;;;;5114048;28;20568;-71
2021/06/21 12:24:19;;;;;;;6.57;2.40;;;32.20;35.10;;;;;;5113755;28;20848;-70
2021/06/21 12:26:48;;;;;;;8.73;2.10;;;32.30;36.70;;;;;;5114257;28;20521;-70
2021/06/21 12:29:24;;;;;;;8.30;2.40;;;32.40;36.00;;;;;;5113611;28;20489;-70
2021/06/21 12:31:56;;;;;;;5.40;2.00;;;32.40;34.80;;;;;;5114092;28;20465;-71
2021/06/21 12:34:51;;;;;;;8.80;2.60;;;32.40;36.90;;;;;;5114076;28;20470;-70
2021/06/21 12:37:21;;;;;;;6.30;2.40;;;32.60;34.80;;;;;;5114085;28;20438;-70
2021/06/21 12:39:53;;;;;;;8.00;2.50;;;32.70;35.40;;;;;;5114001;28;20852;-70
2021/06/21 12:42:21;;;;;;;7.60;2.67;;;32.70;34.50;;;;;;5113954;28;20525;-70
2021/06/21 12:44:49;;;;;;;15.87;2.80;;;32.60;34.50;;;;;;5113910;28;20434;-70
2021/06/21 12:47:25;;;;;;;7.40;2.50;;;32.50;33.80;;;;;;5113574;28;20529;-70
2021/06/21 12:49:55;;;;;;;8.00;2.57;;;32.50;33.90;;;;;;5113731;28;20470;-70
2021/06/21 12:52:24;;;;;;;8.70;2.30;;;32.50;34.20;;;;;;5113850;28;20495;-70
2021/06/21 12:55:08;;;;;;;5.20;2.20;;;32.50;34.70;;;;;;5113607;28;20434;-70
2021/06/21 12:57:50;;;;;;;5.80;1.70;;;32.50;34.90;;;;;;5113538;28;20494;-70
2021/06/21 13:00:19;;;;;;;5.73;2.10;;;32.40;34.80;;;;;;5113601;28;20509;-70
2021/06/21 13:02:46;;;;;;;8.23;1.90;;;32.40;33.70;;;;;;5113489;28;20513;-71
2021/06/21 13:05:15;;;;;;;12.77;2.47;;;32.10;34.30;;;;;;5113625;28;20517;-70